sensor_id;sensor_type;location;lat;lon;timestamp;P1;durP1;ratioP1;P2;durP2;ratioP2
2201;SDS011;1107;48.654;9.250;2023-10-13T00:01:53;5.07;;;4.60;;
2201;SDS011;1107;48.654;9.250;2023-10-13T00:04:22;7.20;;;4.87;;
2201;SDS011;1107;48.654;9.250;2023-10-13T00:06:50;4.70;;;4.40;;
2201;SDS011;1107;48.654;9.250;2023-10-13T00:09:18;9.57;;;4.33;;
2201;SDS011;1107;48.654;9.250;2023-10-13T00:11:50;9.03;;;4.60;;
2201;SDS011;1107;48.654;9.250;2023-10-13T00:14:19;8.93;;;4.77;;
2201;SDS011;1107;48.654;9.250;2023-10-13T00:16:47;6.90;;;4.70;;
2201;SDS011;1107;48.654;9.250;2023-10-13T00:19:39;5.27;;;4.87;;
2201;SDS011;1107;48.654;9.250;2023-10-13T00:22:13;5.13;;;4.77;;
2201;SDS011;1107;48.654;9.250;2023-10-13T00:24:44;5.57;;;5.07;;
2201;SDS011;1107;48.654;9.250;2023-10-13T00:27:12;5.23;;;4.77;;
2201;SDS011;1107;48.654;9.250;2023-10-13T00:29:54;6.10;;;5.20;;
2201;SDS011;1107;48.654;9.250;2023-10-13T00:32:35;5.73;;;5.23;;
2201;SDS011;1107;48.654;9.250;2023-10-13T00:35:16;7.27;;;4.43;;
2201;SDS011;1107;48.654;9.250;2023-10-13T00:51:02;5.03;;;4.57;;
2201;SDS011;1107;48.654;9.250;2023-10-13T00:53:32;10.23;;;5.17;;
2201;SDS011;1107;48.654;9.250;2023-10-13T00:55:59;11.40;;;5.20;;
2201;SDS011;1107;48.654;9.250;2023-10-13T00:58:31;4.93;;;4.50;;
2201;SDS011;1107;48.654;9.250;2023-10-13T01:00:59;7.70;;;4.63;;
2201;SDS011;1107;48.654;9.250;2023-10-13T01:03:42;9.77;;;5.37;;
2201;SDS011;1107;48.654;9.250;2023-10-13T01:06:11;6.23;;;4.97;;
2201;SDS011;1107;48.654;9.250;2023-10-13T01:08:39;5.00;;;4.60;;
2201;SDS011;1107;48.654;9.250;2023-10-13T01:11:09;5.20;;;4.73;;
2201;SDS011;1107;48.654;9.250;2023-10-13T01:13:38;4.17;;;3.87;;
2201;SDS011;1107;48.654;9.250;2023-10-13T01:16:06;8.60;;;4.93;;
2201;SDS011;1107;48.654;9.250;2023-10-13T01:18:33;5.40;;;5.10;;
2201;SDS011;1107;48.654;9.250;2023-10-13T01:21:05;8.80;;;5.37;;
2201;SDS011;1107;48.654;9.250;2023-10-13T01:23:35;4.90;;;4.50;;
2201;SDS011;1107;48.654;9.250;2023-10-13T01:26:03;10.37;;;4.97;;
2201;SDS011;1107;48.654;9.250;2023-10-13T01:28:31;7.13;;;5.30;;
2201;SDS011;1107;48.654;9.250;2023-10-13T01:31:09;6.20;;;4.77;;
2201;SDS011;1107;48.654;9.250;2023-10-13T01:33:38;8.43;;;4.20;;
2201;SDS011;1107;48.654;9.250;2023-10-13T01:36:04;13.20;;;5.23;;
2201;SDS011;1107;48.654;9.250;2023-10-13T01:38:36;8.30;;;5.30;;
2201;SDS011;1107;48.654;9.250;2023-10-13T01:41:04;6.07;;;5.33;;
2201;SDS011;1107;48.654;9.250;2023-10-13T01:43:34;6.80;;;6.23;;
2201;SDS011;1107;48.654;9.250;2023-10-13T01:46:00;5.80;;;5.30;;
2201;SDS011;1107;48.654;9.250;2023-10-13T01:48:28;12.63;;;5.23;;
2201;SDS011;1107;48.654;9.250;2023-10-13T01:50:57;8.17;;;5.00;;
2201;SDS011;1107;48.654;9.250;2023-10-13T01:53:29;10.93;;;5.20;;
2201;SDS011;1107;48.654;9.250;2023-10-13T01:55:56;5.20;;;4.90;;
2201;SDS011;1107;48.654;9.250;2023-10-13T01:58:23;5.80;;;5.17;;
2201;SDS011;1107;48.654;9.250;2023-10-13T02:00:51;5.97;;;5.37;;
2201;SDS011;1107;48.654;9.250;2023-10-13T02:03:18;8.93;;;4.97;;
2201;SDS011;1107;48.654;9.250;2023-10-13T02:05:47;8.00;;;5.07;;
2201;SDS011;1107;48.654;9.250;2023-10-13T02:08:14;7.40;;;5.60;;
2201;SDS011;1107;48.654;9.250;2023-10-13T02:10:48;6.27;;;5.03;;
2201;SDS011;1107;48.654;9.250;2023-10-13T02:13:15;5.80;;;5.40;;
2201;SDS011;1107;48.654;9.250;2023-10-13T02:15:43;13.10;;;5.00;;
2201;SDS011;1107;48.654;9.250;2023-10-13T02:18:13;7.23;;;5.30;;
2201;SDS011;1107;48.654;9.250;2023-10-13T02:20:46;5.60;;;5.10;;
2201;SDS011;1107;48.654;9.250;2023-10-13T02:23:19;7.23;;;6.50;;
2201;SDS011;1107;48.654;9.250;2023-10-13T02:25:46;10.83;;;6.20;;
2201;SDS011;1107;48.654;9.250;2023-10-13T02:28:13;10.93;;;5.60;;
2201;SDS011;1107;48.654;9.250;2023-10-13T02:30:46;5.87;;;5.47;;
2201;SDS011;1107;48.654;9.250;2023-10-13T02:33:15;6.13;;;5.60;;
2201;SDS011;1107;48.654;9.250;2023-10-13T02:35:46;6.93;;;5.70;;
2201;SDS011;1107;48.654;9.250;2023-10-13T02:38:18;5.33;;;5.00;;
2201;SDS011;1107;48.654;9.250;2023-10-13T02:40:53;5.47;;;5.00;;
2201;SDS011;1107;48.654;9.250;2023-10-13T02:43:22;6.10;;;5.50;;
2201;SDS011;1107;48.654;9.250;2023-10-13T02:45:52;5.80;;;5.30;;
2201;SDS011;1107;48.654;9.250;2023-10-13T02:48:23;6.10;;;5.50;;
2201;SDS011;1107;48.654;9.250;2023-10-13T02:50:54;7.30;;;5.20;;
2201;SDS011;1107;48.654;9.250;2023-10-13T02:53:22;5.60;;;5.23;;
2201;SDS011;1107;48.654;9.250;2023-10-13T02:55:54;8.93;;;5.27;;
2201;SDS011;1107;48.654;9.250;2023-10-13T02:58:22;9.53;;;5.40;;
2201;SDS011;1107;48.654;9.250;2023-10-13T03:01:03;6.43;;;5.80;;
2201;SDS011;1107;48.654;9.250;2023-10-13T03:03:42;11.17;;;5.20;;
2201;SDS011;1107;48.654;9.250;2023-10-13T03:06:12;9.23;;;5.50;;
2201;SDS011;1107;48.654;9.250;2023-10-13T03:08:39;6.60;;;5.50;;
2201;SDS011;1107;48.654;9.250;2023-10-13T03:11:08;6.57;;;5.47;;
2201;SDS011;1107;48.654;9.250;2023-10-13T03:13:36;5.60;;;5.17;;
2201;SDS011;1107;48.654;9.250;2023-10-13T03:16:12;10.30;;;5.63;;
2201;SDS011;1107;48.654;9.250;2023-10-13T03:18:41;6.30;;;5.80;;
2201;SDS011;1107;48.654;9.250;2023-10-13T03:21:19;8.40;;;5.40;;
2201;SDS011;1107;48.654;9.250;2023-10-13T03:23:56;12.23;;;6.00;;
2201;SDS011;1107;48.654;9.250;2023-10-13T03:26:29;6.03;;;5.50;;
2201;SDS011;1107;48.654;9.250;2023-10-13T03:29:01;5.70;;;5.30;;
2201;SDS011;1107;48.654;9.250;2023-10-13T03:31:32;5.37;;;4.60;;
2201;SDS011;1107;48.654;9.250;2023-10-13T03:34:02;8.80;;;5.10;;
2201;SDS011;1107;48.654;9.250;2023-10-13T03:36:34;5.63;;;5.20;;
2201;SDS011;1107;48.654;9.250;2023-10-13T03:39:27;5.40;;;5.00;;
2201;SDS011;1107;48.654;9.250;2023-10-13T03:41:56;6.00;;;5.33;;
2201;SDS011;1107;48.654;9.250;2023-10-13T03:44:26;5.20;;;4.87;;
2201;SDS011;1107;48.654;9.250;2023-10-13T03:46:55;5.70;;;5.40;;
2201;SDS011;1107;48.654;9.250;2023-10-13T03:49:33;6.10;;;5.60;;
2201;SDS011;1107;48.654;9.250;2023-10-13T03:52:03;6.90;;;5.97;;
2201;SDS011;1107;48.654;9.250;2023-10-13T03:54:31;9.83;;;4.60;;
2201;SDS011;1107;48.654;9.250;2023-10-13T03:57:00;9.20;;;6.10;;
2201;SDS011;1107;48.654;9.250;2023-10-13T03:59:37;8.10;;;5.70;;
2201;SDS011;1107;48.654;9.250;2023-10-13T04:02:05;11.70;;;4.90;;
2201;SDS011;1107;48.654;9.250;2023-10-13T04:04:38;6.00;;;5.40;;
2201;SDS011;1107;48.654;9.250;2023-10-13T04:07:13;5.97;;;5.43;;
2201;SDS011;1107;48.654;9.250;2023-10-13T04:10:04;6.20;;;4.80;;
2201;SDS011;1107;48.654;9.250;2023-10-13T04:12:49;8.90;;;4.50;;
2201;SDS011;1107;48.654;9.250;2023-10-13T04:15:35;6.10;;;5.60;;
2201;SDS011;1107;48.654;9.250;2023-10-13T04:18:08;5.93;;;5.40;;
2201;SDS011;1107;48.654;9.250;2023-10-13T04:20:58;6.50;;;5.47;;
2201;SDS011;1107;48.654;9.250;2023-10-13T04:23:43;5.50;;;4.90;;
2201;SDS011;1107;48.654;9.250;2023-10-13T04:26:24;5.60;;;5.20;;
2201;SDS011;1107;48.654;9.250;2023-10-13T04:29:01;6.73;;;6.00;;
2201;SDS011;1107;48.654;9.250;2023-10-13T04:31:37;11.80;;;5.53;;
2201;SDS011;1107;48.654;9.250;2023-10-13T04:34:21;5.40;;;4.90;;
2201;SDS011;1107;48.654;9.250;2023-10-13T04:36:53;8.70;;;5.63;;
2201;SDS011;1107;48.654;9.250;2023-10-13T04:39:22;6.80;;;6.10;;
2201;SDS011;1107;48.654;9.250;2023-10-13T04:42:00;5.60;;;5.10;;
2201;SDS011;1107;48.654;9.250;2023-10-13T04:44:38;6.10;;;5.30;;
2201;SDS011;1107;48.654;9.250;2023-10-13T04:47:18;7.33;;;4.90;;
2201;SDS011;1107;48.654;9.250;2023-10-13T04:49:46;6.37;;;5.47;;
2201;SDS011;1107;48.654;9.250;2023-10-13T04:52:18;5.90;;;5.50;;
2201;SDS011;1107;48.654;9.250;2023-10-13T04:55:03;12.23;;;5.40;;
2201;SDS011;1107;48.654;9.250;2023-10-13T04:57:51;5.97;;;5.43;;
2201;SDS011;1107;48.654;9.250;2023-10-13T05:00:25;6.13;;;5.50;;
2201;SDS011;1107;48.654;9.250;2023-10-13T05:03:16;7.47;;;6.17;;
2201;SDS011;1107;48.654;9.250;2023-10-13T05:06:16;8.20;;;7.50;;
2201;SDS011;1107;48.654;9.250;2023-10-13T05:09:00;11.00;;;6.93;;
2201;SDS011;1107;48.654;9.250;2023-10-13T05:11:44;6.60;;;6.07;;
2201;SDS011;1107;48.654;9.250;2023-10-13T05:14:29;9.00;;;6.17;;
2201;SDS011;1107;48.654;9.250;2023-10-13T05:17:12;10.53;;;5.53;;
2201;SDS011;1107;48.654;9.250;2023-10-13T05:19:59;9.65;;;5.70;;
2201;SDS011;1107;48.654;9.250;2023-10-13T05:22:43;6.57;;;5.87;;
2201;SDS011;1107;48.654;9.250;2023-10-13T05:25:27;6.97;;;6.00;;
2201;SDS011;1107;48.654;9.250;2023-10-13T05:28:11;7.10;;;6.27;;
2201;SDS011;1107;48.654;9.250;2023-10-13T05:30:58;8.47;;;6.53;;
2201;SDS011;1107;48.654;9.250;2023-10-13T05:33:42;5.93;;;5.43;;
2201;SDS011;1107;48.654;9.250;2023-10-13T05:41:57;6.50;;;5.80;;
2201;SDS011;1107;48.654;9.250;2023-10-13T05:44:42;9.83;;;6.70;;
2201;SDS011;1107;48.654;9.250;2023-10-13T05:47:21;6.40;;;6.00;;
2201;SDS011;1107;48.654;9.250;2023-10-13T05:50:09;7.63;;;6.23;;
2201;SDS011;1107;48.654;9.250;2023-10-13T05:52:55;8.77;;;5.60;;
2201;SDS011;1107;48.654;9.250;2023-10-13T05:55:39;6.80;;;5.90;;
2201;SDS011;1107;48.654;9.250;2023-10-13T05:58:23;7.00;;;6.50;;
2201;SDS011;1107;48.654;9.250;2023-10-13T06:01:11;5.90;;;5.40;;
2201;SDS011;1107;48.654;9.250;2023-10-13T06:03:56;6.10;;;5.57;;
2201;SDS011;1107;48.654;9.250;2023-10-13T06:12:10;8.00;;;6.60;;
2201;SDS011;1107;48.654;9.250;2023-10-13T06:14:54;7.50;;;7.03;;
2201;SDS011;1107;48.654;9.250;2023-10-13T06:20:22;7.10;;;6.50;;
2201;SDS011;1107;48.654;9.250;2023-10-13T06:23:06;6.70;;;6.20;;
2201;SDS011;1107;48.654;9.250;2023-10-13T06:25:52;8.00;;;6.43;;
2201;SDS011;1107;48.654;9.250;2023-10-13T06:28:37;7.00;;;6.33;;
2201;SDS011;1107;48.654;9.250;2023-10-13T06:31:07;7.43;;;6.83;;
2201;SDS011;1107;48.654;9.250;2023-10-13T06:33:39;7.37;;;6.60;;
2201;SDS011;1107;48.654;9.250;2023-10-13T06:36:10;11.50;;;6.80;;
2201;SDS011;1107;48.654;9.250;2023-10-13T06:38:37;9.17;;;5.83;;
2201;SDS011;1107;48.654;9.250;2023-10-13T06:41:06;7.70;;;6.70;;
2201;SDS011;1107;48.654;9.250;2023-10-13T06:43:33;6.57;;;6.27;;
2201;SDS011;1107;48.654;9.250;2023-10-13T06:46:05;10.70;;;5.83;;
2201;SDS011;1107;48.654;9.250;2023-10-13T06:48:32;11.10;;;6.10;;
2201;SDS011;1107;48.654;9.250;2023-10-13T06:51:00;6.33;;;5.93;;
2201;SDS011;1107;48.654;9.250;2023-10-13T06:53:39;9.80;;;6.07;;
2201;SDS011;1107;48.654;9.250;2023-10-13T06:56:12;6.30;;;5.90;;
2201;SDS011;1107;48.654;9.250;2023-10-13T06:58:47;9.13;;;6.53;;
2201;SDS011;1107;48.654;9.250;2023-10-13T07:01:14;6.87;;;6.27;;
2201;SDS011;1107;48.654;9.250;2023-10-13T07:03:46;8.23;;;5.97;;
2201;SDS011;1107;48.654;9.250;2023-10-13T07:06:18;12.60;;;6.13;;
2201;SDS011;1107;48.654;9.250;2023-10-13T07:08:45;9.30;;;6.17;;
2201;SDS011;1107;48.654;9.250;2023-10-13T07:11:18;6.83;;;6.37;;
2201;SDS011;1107;48.654;9.250;2023-10-13T07:13:48;6.73;;;6.20;;
2201;SDS011;1107;48.654;9.250;2023-10-13T07:16:17;15.50;;;6.90;;
2201;SDS011;1107;48.654;9.250;2023-10-13T07:18:44;8.13;;;6.87;;
2201;SDS011;1107;48.654;9.250;2023-10-13T07:21:18;8.33;;;6.80;;
2201;SDS011;1107;48.654;9.250;2023-10-13T07:23:49;10.70;;;7.30;;
2201;SDS011;1107;48.654;9.250;2023-10-13T07:26:27;11.90;;;6.77;;
2201;SDS011;1107;48.654;9.250;2023-10-13T07:28:55;7.30;;;6.53;;
2201;SDS011;1107;48.654;9.250;2023-10-13T07:31:23;7.10;;;6.43;;
2201;SDS011;1107;48.654;9.250;2023-10-13T07:33:52;8.10;;;7.37;;
2201;SDS011;1107;48.654;9.250;2023-10-13T07:36:29;10.30;;;6.33;;
2201;SDS011;1107;48.654;9.250;2023-10-13T07:39:04;7.43;;;6.77;;
2201;SDS011;1107;48.654;9.250;2023-10-13T07:41:47;7.40;;;6.13;;
2201;SDS011;1107;48.654;9.250;2023-10-13T07:44:19;7.13;;;6.43;;
2201;SDS011;1107;48.654;9.250;2023-10-13T07:46:50;7.07;;;6.57;;
2201;SDS011;1107;48.654;9.250;2023-10-13T07:49:25;10.23;;;6.53;;
2201;SDS011;1107;48.654;9.250;2023-10-13T07:51:57;10.73;;;6.80;;
2201;SDS011;1107;48.654;9.250;2023-10-13T07:54:32;7.73;;;6.77;;
2201;SDS011;1107;48.654;9.250;2023-10-13T07:57:00;6.83;;;6.20;;
2201;SDS011;1107;48.654;9.250;2023-10-13T07:59:33;6.87;;;6.27;;
2201;SDS011;1107;48.654;9.250;2023-10-13T08:02:00;8.40;;;6.20;;
2201;SDS011;1107;48.654;9.250;2023-10-13T08:04:38;7.43;;;5.97;;
2201;SDS011;1107;48.654;9.250;2023-10-13T08:07:05;15.63;;;6.37;;
2201;SDS011;1107;48.654;9.250;2023-10-13T08:09:39;6.37;;;5.87;;
2201;SDS011;1107;48.654;9.250;2023-10-13T08:12:08;6.47;;;5.80;;
2201;SDS011;1107;48.654;9.250;2023-10-13T08:14:37;6.97;;;6.40;;
2201;SDS011;1107;48.654;9.250;2023-10-13T08:17:05;11.77;;;5.90;;
2201;SDS011;1107;48.654;9.250;2023-10-13T08:19:35;10.90;;;6.17;;
2201;SDS011;1107;48.654;9.250;2023-10-13T08:22:10;6.07;;;5.67;;
2201;SDS011;1107;48.654;9.250;2023-10-13T08:25:01;12.00;;;6.00;;
2201;SDS011;1107;48.654;9.250;2023-10-13T08:27:46;5.60;;;5.10;;
2201;SDS011;1107;48.654;9.250;2023-10-13T08:30:43;6.00;;;5.50;;
2201;SDS011;1107;48.654;9.250;2023-10-13T08:33:18;7.03;;;6.00;;
2201;SDS011;1107;48.654;9.250;2023-10-13T08:35:50;9.50;;;6.20;;
2201;SDS011;1107;48.654;9.250;2023-10-13T08:38:51;5.83;;;5.33;;
2201;SDS011;1107;48.654;9.250;2023-10-13T08:41:20;7.43;;;5.40;;
2201;SDS011;1107;48.654;9.250;2023-10-13T08:44:02;16.30;;;5.07;;
2201;SDS011;1107;48.654;9.250;2023-10-13T08:46:32;9.53;;;5.40;;
2201;SDS011;1107;48.654;9.250;2023-10-13T08:49:20;7.00;;;5.20;;
2201;SDS011;1107;48.654;9.250;2023-10-13T08:51:48;8.43;;;5.93;;
2201;SDS011;1107;48.654;9.250;2023-10-13T08:54:30;5.33;;;5.03;;
2201;SDS011;1107;48.654;9.250;2023-10-13T08:57:04;6.47;;;4.87;;
2201;SDS011;1107;48.654;9.250;2023-10-13T08:59:45;11.37;;;5.47;;
2201;SDS011;1107;48.654;9.250;2023-10-13T09:02:22;6.83;;;4.67;;
2201;SDS011;1107;48.654;9.250;2023-10-13T09:05:09;7.07;;;5.23;;
2201;SDS011;1107;48.654;9.250;2023-10-13T09:07:51;9.50;;;4.97;;
2201;SDS011;1107;48.654;9.250;2023-10-13T09:10:21;7.23;;;5.23;;
2201;SDS011;1107;48.654;9.250;2023-10-13T09:12:58;18.13;;;5.03;;
2201;SDS011;1107;48.654;9.250;2023-10-13T09:15:29;5.90;;;5.23;;
2201;SDS011;1107;48.654;9.250;2023-10-13T09:18:11;15.93;;;6.63;;
2201;SDS011;1107;48.654;9.250;2023-10-13T09:21:07;6.30;;;5.20;;
2201;SDS011;1107;48.654;9.250;2023-10-13T09:23:55;5.47;;;4.97;;
2201;SDS011;1107;48.654;9.250;2023-10-13T09:26:42;7.80;;;4.00;;
2201;SDS011;1107;48.654;9.250;2023-10-13T09:29:14;15.73;;;5.60;;
2201;SDS011;1107;48.654;9.250;2023-10-13T09:31:44;5.20;;;4.60;;
2201;SDS011;1107;48.654;9.250;2023-10-13T09:34:20;12.47;;;5.13;;
2201;SDS011;1107;48.654;9.250;2023-10-13T09:36:48;7.30;;;4.83;;
2201;SDS011;1107;48.654;9.250;2023-10-13T09:39:21;5.57;;;4.93;;
2201;SDS011;1107;48.654;9.250;2023-10-13T09:42:00;5.40;;;4.93;;
2201;SDS011;1107;48.654;9.250;2023-10-13T09:44:28;6.17;;;4.80;;
2201;SDS011;1107;48.654;9.250;2023-10-13T09:47:00;5.00;;;4.70;;
2201;SDS011;1107;48.654;9.250;2023-10-13T09:49:39;16.13;;;4.60;;
2201;SDS011;1107;48.654;9.250;2023-10-13T09:52:15;6.30;;;5.07;;
2201;SDS011;1107;48.654;9.250;2023-10-13T09:54:52;7.50;;;4.37;;
2201;SDS011;1107;48.654;9.250;2023-10-13T09:57:29;5.90;;;4.30;;
2201;SDS011;1107;48.654;9.250;2023-10-13T10:00:09;7.47;;;4.73;;
2201;SDS011;1107;48.654;9.250;2023-10-13T10:02:53;7.33;;;5.40;;
2201;SDS011;1107;48.654;9.250;2023-10-13T10:05:25;6.40;;;5.10;;
2201;SDS011;1107;48.654;9.250;2023-10-13T10:07:54;7.40;;;4.57;;
2201;SDS011;1107;48.654;9.250;2023-10-13T10:10:25;6.00;;;5.07;;
2201;SDS011;1107;48.654;9.250;2023-10-13T10:13:13;7.93;;;4.80;;
2201;SDS011;1107;48.654;9.250;2023-10-13T10:15:48;4.50;;;4.20;;
2201;SDS011;1107;48.654;9.250;2023-10-13T10:18:19;12.13;;;4.87;;
2201;SDS011;1107;48.654;9.250;2023-10-13T10:20:49;8.97;;;5.27;;
2201;SDS011;1107;48.654;9.250;2023-10-13T10:50:57;14.37;;;3.90;;
2201;SDS011;1107;48.654;9.250;2023-10-13T10:53:34;4.60;;;3.90;;
2201;SDS011;1107;48.654;9.250;2023-10-13T10:56:09;4.27;;;3.87;;
2201;SDS011;1107;48.654;9.250;2023-10-13T11:03:54;10.43;;;3.80;;
2201;SDS011;1107;48.654;9.250;2023-10-13T11:06:32;4.77;;;4.00;;
2201;SDS011;1107;48.654;9.250;2023-10-13T11:09:05;6.90;;;3.90;;
2201;SDS011;1107;48.654;9.250;2023-10-13T11:11:43;4.43;;;4.00;;
2201;SDS011;1107;48.654;9.250;2023-10-13T11:14:19;4.20;;;3.90;;
2201;SDS011;1107;48.654;9.250;2023-10-13T11:16:49;6.10;;;3.60;;
2201;SDS011;1107;48.654;9.250;2023-10-13T11:19:20;5.87;;;4.10;;
2201;SDS011;1107;48.654;9.250;2023-10-13T11:21:51;5.13;;;3.40;;
2201;SDS011;1107;48.654;9.250;2023-10-13T11:24:21;10.40;;;3.70;;
2201;SDS011;1107;48.654;9.250;2023-10-13T11:26:48;6.53;;;3.60;;
2201;SDS011;1107;48.654;9.250;2023-10-13T11:29:33;9.83;;;3.80;;
2201;SDS011;1107;48.654;9.250;2023-10-13T11:32:00;4.73;;;4.10;;
2201;SDS011;1107;48.654;9.250;2023-10-13T11:34:28;6.07;;;4.37;;
2201;SDS011;1107;48.654;9.250;2023-10-13T11:37:04;9.13;;;4.00;;
2201;SDS011;1107;48.654;9.250;2023-10-13T11:39:47;4.23;;;3.83;;
2201;SDS011;1107;48.654;9.250;2023-10-13T11:42:16;4.03;;;3.83;;
2201;SDS011;1107;48.654;9.250;2023-10-13T11:44:43;5.03;;;3.50;;
2201;SDS011;1107;48.654;9.250;2023-10-13T11:47:10;9.07;;;3.77;;
2201;SDS011;1107;48.654;9.250;2023-10-13T11:49:57;7.67;;;3.80;;
2201;SDS011;1107;48.654;9.250;2023-10-13T11:52:24;4.70;;;4.13;;
2201;SDS011;1107;48.654;9.250;2023-10-13T11:54:56;5.70;;;3.70;;
2201;SDS011;1107;48.654;9.250;2023-10-13T11:57:23;13.90;;;3.97;;
2201;SDS011;1107;48.654;9.250;2023-10-13T12:02:41;7.40;;;4.07;;
2201;SDS011;1107;48.654;9.250;2023-10-13T12:05:25;7.65;;;4.00;;
2201;SDS011;1107;48.654;9.250;2023-10-13T12:08:02;5.40;;;3.60;;
2201;SDS011;1107;48.654;9.250;2023-10-13T12:10:34;4.40;;;4.00;;
2201;SDS011;1107;48.654;9.250;2023-10-13T12:13:14;3.87;;;3.50;;
2201;SDS011;1107;48.654;9.250;2023-10-13T12:15:42;3.97;;;3.60;;
2201;SDS011;1107;48.654;9.250;2023-10-13T12:18:17;5.47;;;3.80;;
2201;SDS011;1107;48.654;9.250;2023-10-13T12:20:46;4.00;;;3.70;;
2201;SDS011;1107;48.654;9.250;2023-10-13T12:23:14;4.83;;;4.10;;
2201;SDS011;1107;48.654;9.250;2023-10-13T12:25:47;4.10;;;3.90;;
2201;SDS011;1107;48.654;9.250;2023-10-13T12:28:25;4.60;;;4.30;;
2201;SDS011;1107;48.654;9.250;2023-10-13T12:30:54;5.40;;;4.17;;
2201;SDS011;1107;48.654;9.250;2023-10-13T12:33:22;5.10;;;3.83;;
2201;SDS011;1107;48.654;9.250;2023-10-13T12:36:01;5.83;;;4.00;;
2201;SDS011;1107;48.654;9.250;2023-10-13T12:38:40;4.03;;;3.63;;
2201;SDS011;1107;48.654;9.250;2023-10-13T12:41:34;7.20;;;4.03;;
2201;SDS011;1107;48.654;9.250;2023-10-13T12:44:19;4.93;;;4.40;;
2201;SDS011;1107;48.654;9.250;2023-10-13T12:47:03;6.90;;;3.40;;
2201;SDS011;1107;48.654;9.250;2023-10-13T12:49:48;3.90;;;3.70;;
2201;SDS011;1107;48.654;9.250;2023-10-13T12:52:32;5.00;;;3.43;;
2201;SDS011;1107;48.654;9.250;2023-10-13T12:54:59;6.27;;;3.60;;
2201;SDS011;1107;48.654;9.250;2023-10-13T12:57:36;8.33;;;3.73;;
2201;SDS011;1107;48.654;9.250;2023-10-13T13:00:10;6.33;;;4.30;;
2201;SDS011;1107;48.654;9.250;2023-10-13T13:02:46;4.80;;;4.00;;
2201;SDS011;1107;48.654;9.250;2023-10-13T13:05:15;4.63;;;3.83;;
2201;SDS011;1107;48.654;9.250;2023-10-13T13:07:47;5.83;;;3.77;;
2201;SDS011;1107;48.654;9.250;2023-10-13T13:10:17;4.60;;;4.20;;
2201;SDS011;1107;48.654;9.250;2023-10-13T13:12:47;3.97;;;3.77;;
2201;SDS011;1107;48.654;9.250;2023-10-13T13:15:14;4.17;;;3.77;;
2201;SDS011;1107;48.654;9.250;2023-10-13T13:17:48;5.53;;;3.67;;
2201;SDS011;1107;48.654;9.250;2023-10-13T13:20:16;4.40;;;4.10;;
2201;SDS011;1107;48.654;9.250;2023-10-13T13:22:53;4.93;;;3.63;;
2201;SDS011;1107;48.654;9.250;2023-10-13T13:25:20;9.50;;;4.97;;
2201;SDS011;1107;48.654;9.250;2023-10-13T13:27:52;5.20;;;3.90;;
2201;SDS011;1107;48.654;9.250;2023-10-13T13:30:19;3.90;;;3.70;;
2201;SDS011;1107;48.654;9.250;2023-10-13T13:32:47;6.73;;;4.07;;
2201;SDS011;1107;48.654;9.250;2023-10-13T13:35:15;4.13;;;3.83;;
2201;SDS011;1107;48.654;9.250;2023-10-13T13:37:43;4.17;;;3.77;;
2201;SDS011;1107;48.654;9.250;2023-10-13T13:40:11;5.40;;;3.70;;
2201;SDS011;1107;48.654;9.250;2023-10-13T13:42:41;7.13;;;4.73;;
2201;SDS011;1107;48.654;9.250;2023-10-13T13:45:12;5.50;;;3.73;;
2201;SDS011;1107;48.654;9.250;2023-10-13T13:47:52;4.00;;;3.47;;
2201;SDS011;1107;48.654;9.250;2023-10-13T13:50:20;4.40;;;3.37;;
2201;SDS011;1107;48.654;9.250;2023-10-13T13:52:52;6.70;;;3.70;;
2201;SDS011;1107;48.654;9.250;2023-10-13T13:55:21;7.93;;;3.60;;
2201;SDS011;1107;48.654;9.250;2023-10-13T13:57:49;4.20;;;3.90;;
2201;SDS011;1107;48.654;9.250;2023-10-13T14:00:18;4.50;;;3.70;;
2201;SDS011;1107;48.654;9.250;2023-10-13T14:02:53;4.00;;;3.77;;
2201;SDS011;1107;48.654;9.250;2023-10-13T14:05:20;6.07;;;3.30;;
2201;SDS011;1107;48.654;9.250;2023-10-13T14:07:48;4.63;;;3.83;;
2201;SDS011;1107;48.654;9.250;2023-10-13T14:10:16;13.27;;;5.10;;
2201;SDS011;1107;48.654;9.250;2023-10-13T14:12:57;4.43;;;3.50;;
2201;SDS011;1107;48.654;9.250;2023-10-13T14:15:33;10.83;;;3.53;;
2201;SDS011;1107;48.654;9.250;2023-10-13T14:18:09;3.87;;;3.57;;
2201;SDS011;1107;48.654;9.250;2023-10-13T14:20:40;6.90;;;4.43;;
2201;SDS011;1107;48.654;9.250;2023-10-13T14:23:07;3.83;;;3.37;;
2201;SDS011;1107;48.654;9.250;2023-10-13T14:25:37;6.20;;;3.70;;
2201;SDS011;1107;48.654;9.250;2023-10-13T14:28:09;5.27;;;3.80;;
2201;SDS011;1107;48.654;9.250;2023-10-13T14:30:38;4.60;;;3.33;;
2201;SDS011;1107;48.654;9.250;2023-10-13T14:33:05;5.80;;;3.43;;
2201;SDS011;1107;48.654;9.250;2023-10-13T14:35:36;6.53;;;3.77;;
2201;SDS011;1107;48.654;9.250;2023-10-13T14:38:03;5.50;;;3.73;;
2201;SDS011;1107;48.654;9.250;2023-10-13T14:40:30;3.53;;;3.33;;
2201;SDS011;1107;48.654;9.250;2023-10-13T14:42:57;4.07;;;3.53;;
2201;SDS011;1107;48.654;9.250;2023-10-13T14:45:24;4.40;;;4.00;;
2201;SDS011;1107;48.654;9.250;2023-10-13T14:47:53;3.67;;;3.37;;
2201;SDS011;1107;48.654;9.250;2023-10-13T14:50:20;3.77;;;3.47;;
2201;SDS011;1107;48.654;9.250;2023-10-13T14:52:48;3.20;;;2.97;;
2201;SDS011;1107;48.654;9.250;2023-10-13T14:55:16;3.03;;;2.83;;
2201;SDS011;1107;48.654;9.250;2023-10-13T14:57:46;3.47;;;2.80;;
2201;SDS011;1107;48.654;9.250;2023-10-13T15:00:15;3.10;;;2.90;;
2201;SDS011;1107;48.654;9.250;2023-10-13T15:02:50;5.20;;;2.73;;
2201;SDS011;1107;48.654;9.250;2023-10-13T15:05:19;3.57;;;3.23;;
2201;SDS011;1107;48.654;9.250;2023-10-13T15:07:46;4.87;;;3.10;;
2201;SDS011;1107;48.654;9.250;2023-10-13T15:10:13;9.53;;;3.37;;
2201;SDS011;1107;48.654;9.250;2023-10-13T15:12:41;2.83;;;2.63;;
2201;SDS011;1107;48.654;9.250;2023-10-13T15:15:09;5.47;;;3.50;;
2201;SDS011;1107;48.654;9.250;2023-10-13T15:17:41;2.90;;;2.70;;
2201;SDS011;1107;48.654;9.250;2023-10-13T15:20:08;4.70;;;2.83;;
2201;SDS011;1107;48.654;9.250;2023-10-13T15:22:42;3.33;;;3.03;;
2201;SDS011;1107;48.654;9.250;2023-10-13T15:25:09;3.66;;;3.03;;
2201;SDS011;1107;48.654;9.250;2023-10-13T15:27:46;3.30;;;3.00;;
2201;SDS011;1107;48.654;9.250;2023-10-13T15:30:20;3.07;;;2.60;;
2201;SDS011;1107;48.654;9.250;2023-10-13T15:32:56;3.33;;;3.03;;
2201;SDS011;1107;48.654;9.250;2023-10-13T15:35:23;3.17;;;2.83;;
2201;SDS011;1107;48.654;9.250;2023-10-13T15:37:55;3.60;;;3.30;;
2201;SDS011;1107;48.654;9.250;2023-10-13T15:40:22;3.10;;;2.90;;
2201;SDS011;1107;48.654;9.250;2023-10-13T15:42:52;9.30;;;3.10;;
2201;SDS011;1107;48.654;9.250;2023-10-13T15:45:24;3.20;;;2.73;;
2201;SDS011;1107;48.654;9.250;2023-10-13T15:47:57;2.93;;;2.73;;
2201;SDS011;1107;48.654;9.250;2023-10-13T15:50:24;2.70;;;2.50;;
2201;SDS011;1107;48.654;9.250;2023-10-13T15:52:55;3.10;;;2.80;;
2201;SDS011;1107;48.654;9.250;2023-10-13T15:55:23;3.60;;;3.40;;
2201;SDS011;1107;48.654;9.250;2023-10-13T15:57:51;3.70;;;3.05;;
2201;SDS011;1107;48.654;9.250;2023-10-13T16:00:19;4.73;;;3.40;;
2201;SDS011;1107;48.654;9.250;2023-10-13T16:02:50;4.60;;;3.47;;
2201;SDS011;1107;48.654;9.250;2023-10-13T16:05:19;8.20;;;2.93;;
2201;SDS011;1107;48.654;9.250;2023-10-13T16:07:48;3.33;;;2.97;;
2201;SDS011;1107;48.654;9.250;2023-10-13T16:10:20;3.20;;;3.00;;
2201;SDS011;1107;48.654;9.250;2023-10-13T16:12:47;4.37;;;3.50;;
2201;SDS011;1107;48.654;9.250;2023-10-13T16:15:15;6.63;;;3.27;;
2201;SDS011;1107;48.654;9.250;2023-10-13T16:17:43;4.47;;;3.40;;
2201;SDS011;1107;48.654;9.250;2023-10-13T16:20:10;6.17;;;3.80;;
2201;SDS011;1107;48.654;9.250;2023-10-13T16:22:42;4.03;;;3.43;;
2201;SDS011;1107;48.654;9.250;2023-10-13T16:25:10;3.40;;;3.10;;
2201;SDS011;1107;48.654;9.250;2023-10-13T16:27:40;3.43;;;3.20;;
2201;SDS011;1107;48.654;9.250;2023-10-13T16:30:10;3.37;;;3.17;;
2201;SDS011;1107;48.654;9.250;2023-10-13T16:32:44;3.10;;;2.90;;
2201;SDS011;1107;48.654;9.250;2023-10-13T16:35:13;7.03;;;3.63;;
2201;SDS011;1107;48.654;9.250;2023-10-13T16:37:46;4.33;;;3.03;;
2201;SDS011;1107;48.654;9.250;2023-10-13T16:40:15;4.73;;;3.27;;
2201;SDS011;1107;48.654;9.250;2023-10-13T16:42:46;3.47;;;3.23;;
2201;SDS011;1107;48.654;9.250;2023-10-13T16:45:14;3.70;;;3.33;;
2201;SDS011;1107;48.654;9.250;2023-10-13T16:47:45;4.63;;;4.33;;
2201;SDS011;1107;48.654;9.250;2023-10-13T16:50:12;5.60;;;3.43;;
2201;SDS011;1107;48.654;9.250;2023-10-13T16:52:41;4.13;;;3.63;;
2201;SDS011;1107;48.654;9.250;2023-10-13T16:55:11;8.67;;;4.30;;
2201;SDS011;1107;48.654;9.250;2023-10-13T16:57:39;3.53;;;3.33;;